createdAt,value
2018-07-24T00:04:00.000Z,98640
2018-07-24T00:09:00.000Z,98645
2018-07-24T00:14:00.000Z,98635
2018-07-24T00:19:00.000Z,98638
2018-07-24T00:24:00.000Z,98630
2018-07-24T00:29:00.000Z,98619
2018-07-24T00:34:00.000Z,98614
2018-07-24T00:39:00.000Z,98617
2018-07-24T00:44:00.000Z,98612
2018-07-24T00:49:00.000Z,98608
2018-07-24T00:54:00.000Z,98612
2018-07-24T00:59:00.000Z,98606
2018-07-24T01:04:00.000Z,98608
2018-07-24T01:09:00.000Z,98597
2018-07-24T01:14:00.000Z,98593
2018-07-24T01:19:00.000Z,98587
2018-07-24T01:24:00.000Z,98596
2018-07-24T01:29:00.000Z,98593
2018-07-24T01:34:00.000Z,98591
2018-07-24T01:39:00.000Z,98589
2018-07-24T01:44:00.000Z,98584
2018-07-24T01:49:00.000Z,98583
2018-07-24T01:54:00.000Z,98588
2018-07-24T01:59:00.000Z,98589
2018-07-24T02:04:00.000Z,98582
2018-07-24T02:09:00.000Z,98590
2018-07-24T02:14:00.000Z,98588
2018-07-24T02:19:00.000Z,98591
2018-07-24T02:24:00.000Z,98596
2018-07-24T02:29:00.000Z,98593
2018-07-24T02:34:00.000Z,98588
2018-07-24T02:39:00.000Z,98590
2018-07-24T02:44:00.000Z,98595
2018-07-24T02:49:00.000Z,98597
2018-07-24T02:54:00.000Z,98598
2018-07-24T02:59:00.000Z,98590
2018-07-24T03:04:00.000Z,98608
2018-07-24T03:09:00.000Z,98606
2018-07-24T03:14:00.000Z,98616
2018-07-24T03:19:00.000Z,98608
2018-07-24T03:24:00.000Z,98620
2018-07-24T03:29:00.000Z,98620
2018-07-24T03:34:00.000Z,98613
2018-07-24T03:39:00.000Z,98621
2018-07-24T03:44:00.000Z,98621
2018-07-24T03:49:00.000Z,98632
2018-07-24T03:54:00.000Z,98629
2018-07-24T03:59:00.000Z,98640
2018-07-24T04:04:00.000Z,98636
2018-07-24T04:09:00.000Z,98644
2018-07-24T04:14:00.000Z,98643
2018-07-24T04:19:00.000Z,98639
2018-07-24T04:24:00.000Z,98649
2018-07-24T04:29:00.000Z,98646
2018-07-24T04:34:00.000Z,98644
2018-07-24T04:39:00.000Z,98646
2018-07-24T04:44:00.000Z,98653
2018-07-24T04:50:00.000Z,98647
2018-07-24T04:55:00.000Z,98658
2018-07-24T05:00:00.000Z,98656
2018-07-24T05:05:00.000Z,98651
2018-07-24T05:10:00.000Z,98654
2018-07-24T05:15:00.000Z,98653
2018-07-24T05:20:00.000Z,98661
2018-07-24T05:25:00.000Z,98657
2018-07-24T05:30:00.000Z,98663
2018-07-24T05:35:00.000Z,98660
2018-07-24T05:40:00.000Z,98660
2018-07-24T05:45:00.000Z,98667
2018-07-24T05:50:00.000Z,98671
2018-07-24T05:55:00.000Z,98665
2018-07-24T06:00:00.000Z,98657
2018-07-24T06:05:00.000Z,98662
2018-07-24T06:10:00.000Z,98662
2018-07-24T06:15:00.000Z,98663
2018-07-24T06:20:00.000Z,98669
2018-07-24T06:25:00.000Z,98670
2018-07-24T06:30:00.000Z,98665
2018-07-24T06:35:00.000Z,98666
2018-07-24T06:40:00.000Z,98663
2018-07-24T06:45:00.000Z,98658
2018-07-24T06:50:00.000Z,98661
2018-07-24T06:55:00.000Z,98663
2018-07-24T07:00:00.000Z,98658
2018-07-24T07:05:00.000Z,98657
2018-07-24T07:10:00.000Z,98646
2018-07-24T07:15:00.000Z,98654
2018-07-24T07:20:00.000Z,98651
2018-07-24T07:25:00.000Z,98650
2018-07-24T07:30:00.000Z,98656
2018-07-24T07:35:00.000Z,98651
2018-07-24T07:40:00.000Z,98650
2018-07-24T07:45:00.000Z,98648
2018-07-24T07:50:00.000Z,98646
2018-07-24T07:55:00.000Z,98646
2018-07-24T08:00:00.000Z,98645
2018-07-24T08:05:00.000Z,98645
2018-07-24T08:10:00.000Z,98638
2018-07-24T08:15:00.000Z,98647
2018-07-24T08:20:00.000Z,98642
2018-07-24T08:25:00.000Z,98642
2018-07-24T08:30:00.000Z,98640
2018-07-24T08:35:00.000Z,98637
2018-07-24T08:40:00.000Z,98641
2018-07-24T08:45:00.000Z,98640
2018-07-24T08:50:00.000Z,98641
2018-07-24T08:55:00.000Z,98638
2018-07-24T09:00:00.000Z,98638
2018-07-24T09:05:00.000Z,98630
2018-07-24T09:10:00.000Z,98634
2018-07-24T09:15:00.000Z,98620
2018-07-24T09:20:00.000Z,98626
2018-07-24T09:25:00.000Z,98628
2018-07-24T09:30:00.000Z,98621
2018-07-24T09:35:00.000Z,98623
2018-07-24T09:40:00.000Z,98625
2018-07-24T09:45:00.000Z,98624
2018-07-24T09:50:00.000Z,98625
2018-07-24T09:55:00.000Z,98620
2018-07-24T10:00:00.000Z,98619
2018-07-24T10:05:00.000Z,98623
2018-07-24T10:10:00.000Z,98618
2018-07-24T10:15:00.000Z,98614
2018-07-24T10:20:00.000Z,98606
2018-07-24T10:25:00.000Z,98603
2018-07-24T10:30:00.000Z,98609
2018-07-24T10:35:00.000Z,98607
2018-07-24T10:40:00.000Z,98597
2018-07-24T10:46:00.000Z,98594
2018-07-24T10:51:00.000Z,98596
2018-07-24T10:56:00.000Z,98591
2018-07-24T11:01:00.000Z,98581
2018-07-24T11:06:00.000Z,98585
2018-07-24T11:11:00.000Z,98579
2018-07-24T11:16:00.000Z,98576
2018-07-24T11:21:00.000Z,98567
2018-07-24T11:26:00.000Z,98562
2018-07-24T11:31:00.000Z,98564
2018-07-24T11:36:00.000Z,98556
2018-07-24T11:41:00.000Z,98546
2018-07-24T11:46:00.000Z,98543
2018-07-24T11:51:00.000Z,98530
2018-07-24T11:56:00.000Z,98537
2018-07-24T12:01:00.000Z,98530
2018-07-24T12:06:00.000Z,98525
2018-07-24T12:11:00.000Z,98513
2018-07-24T12:16:00.000Z,98513
2018-07-24T12:21:00.000Z,98508
2018-07-24T12:26:00.000Z,98501
2018-07-24T12:31:00.000Z,98511
2018-07-24T12:36:00.000Z,98493
2018-07-24T12:41:00.000Z,98503
2018-07-24T12:46:00.000Z,98486
2018-07-24T12:51:00.000Z,98475
2018-07-24T12:56:00.000Z,98478
2018-07-24T13:01:00.000Z,98478
2018-07-24T13:06:00.000Z,98461
2018-07-24T13:11:00.000Z,98458
2018-07-24T13:16:00.000Z,98461
2018-07-24T13:21:00.000Z,98471
2018-07-24T13:26:00.000Z,98454
2018-07-24T13:31:00.000Z,98452
2018-07-24T13:36:00.000Z,98455
2018-07-24T13:41:00.000Z,98454
2018-07-24T13:46:00.000Z,98445
2018-07-24T13:51:00.000Z,98452
2018-07-24T13:56:00.000Z,98440
2018-07-24T14:01:00.000Z,98434
2018-07-24T14:06:00.000Z,98441
2018-07-24T14:11:00.000Z,98438
2018-07-24T14:16:00.000Z,98424
2018-07-24T14:21:00.000Z,98427
2018-07-24T14:26:00.000Z,98425
2018-07-24T14:31:00.000Z,98412
2018-07-24T14:36:00.000Z,98420
2018-07-24T14:41:00.000Z,98417
2018-07-24T14:46:00.000Z,98411
2018-07-24T14:51:00.000Z,98413
2018-07-24T14:56:00.000Z,98399
2018-07-24T15:01:00.000Z,98411
2018-07-24T15:06:00.000Z,98406
2018-07-24T15:11:00.000Z,98394
2018-07-24T15:16:00.000Z,98402
2018-07-24T15:21:00.000Z,98400
2018-07-24T15:26:00.000Z,98382
2018-07-24T15:31:00.000Z,98392
2018-07-24T15:36:00.000Z,98384
2018-07-24T15:41:00.000Z,98381
2018-07-24T15:46:00.000Z,98372
2018-07-24T15:51:00.000Z,98375
2018-07-24T15:56:00.000Z,98371
2018-07-24T16:01:00.000Z,98365
2018-07-24T16:06:00.000Z,98364
2018-07-24T16:11:00.000Z,98366
2018-07-24T16:16:00.000Z,98364
2018-07-24T16:21:00.000Z,98361
2018-07-24T16:26:00.000Z,98354
2018-07-24T16:31:00.000Z,98372
2018-07-24T16:36:00.000Z,98370
2018-07-24T16:42:00.000Z,98363
2018-07-24T16:47:00.000Z,98371
2018-07-24T16:52:00.000Z,98358
2018-07-24T16:57:00.000Z,98367
2018-07-24T17:02:00.000Z,98366
2018-07-24T17:07:00.000Z,98367
2018-07-24T17:12:00.000Z,98366
2018-07-24T17:17:00.000Z,98371
2018-07-24T17:22:00.000Z,98363
2018-07-24T17:27:00.000Z,98365
2018-07-24T17:32:00.000Z,98374
2018-07-24T17:37:00.000Z,98363
2018-07-24T17:42:00.000Z,98373
2018-07-24T17:47:00.000Z,98382
2018-07-24T17:52:00.000Z,98378
2018-07-24T17:57:00.000Z,98381
2018-07-24T18:02:00.000Z,98383
2018-07-24T18:07:00.000Z,98380
2018-07-24T18:12:00.000Z,98387
2018-07-24T18:17:00.000Z,98385
2018-07-24T18:22:00.000Z,98383
2018-07-24T18:27:00.000Z,98386
2018-07-24T18:32:00.000Z,98391
2018-07-24T18:37:00.000Z,98387
2018-07-24T18:42:00.000Z,98389
2018-07-24T18:47:00.000Z,98390
2018-07-24T18:52:00.000Z,98403
2018-07-24T18:57:00.000Z,98401
2018-07-24T19:02:00.000Z,98399
2018-07-24T19:07:00.000Z,98408
2018-07-24T19:12:00.000Z,98415
2018-07-24T19:17:00.000Z,98420
2018-07-24T19:22:00.000Z,98429
2018-07-24T19:27:00.000Z,98425
2018-07-24T19:32:00.000Z,98436
2018-07-24T19:37:00.000Z,98433
2018-07-24T19:42:00.000Z,98435
2018-07-24T19:47:00.000Z,98439
2018-07-24T19:52:00.000Z,98434
2018-07-24T19:57:00.000Z,98432
2018-07-24T20:02:00.000Z,98433
2018-07-24T20:07:00.000Z,98437
2018-07-24T20:12:00.000Z,98439
2018-07-24T20:17:00.000Z,98449
2018-07-24T20:22:00.000Z,98443
2018-07-24T20:27:00.000Z,98445
2018-07-24T20:32:00.000Z,98450
2018-07-24T20:37:00.000Z,98456
2018-07-24T20:42:00.000Z,98459
2018-07-24T20:47:00.000Z,98460
2018-07-24T20:52:00.000Z,98461
2018-07-24T20:57:00.000Z,98463
2018-07-24T21:02:00.000Z,98465
2018-07-24T21:07:00.000Z,98461
2018-07-24T21:12:00.000Z,98468
2018-07-24T21:17:00.000Z,98463
2018-07-24T21:22:00.000Z,98472
2018-07-24T21:27:00.000Z,98479
2018-07-24T21:32:00.000Z,98482
2018-07-24T21:37:00.000Z,98477
2018-07-24T21:42:00.000Z,98485
2018-07-24T21:47:00.000Z,98486
2018-07-24T21:52:00.000Z,98478
2018-07-24T21:57:00.000Z,98486
2018-07-24T22:02:00.000Z,98492
2018-07-24T22:07:00.000Z,98487
2018-07-24T22:12:00.000Z,98482
2018-07-24T22:17:00.000Z,98472
2018-07-24T22:22:00.000Z,98481
2018-07-24T22:27:00.000Z,98485
2018-07-24T22:32:00.000Z,98478
2018-07-24T22:37:00.000Z,98476
2018-07-24T22:43:00.000Z,98471
2018-07-24T22:48:00.000Z,98462
2018-07-24T22:53:00.000Z,98473
2018-07-24T22:58:00.000Z,98475
2018-07-24T23:03:00.000Z,98476
2018-07-24T23:08:00.000Z,98481
2018-07-24T23:13:00.000Z,98468
2018-07-24T23:18:00.000Z,98476
2018-07-24T23:23:00.000Z,98473
2018-07-24T23:28:00.000Z,98479
2018-07-24T23:33:00.000Z,98467
2018-07-24T23:38:00.000Z,98474
2018-07-24T23:43:00.000Z,98464
2018-07-24T23:48:00.000Z,98464
2018-07-24T23:53:00.000Z,98467
2018-07-24T23:58:00.000Z,98459
